New Windsor, New York
Current Conditions -  °F | °C
As of 12:45 PM on Sunday 23 Nov 2014 (Local Time) from KSWF Reporting Station
Broken Clouds Broken Clouds  
Wind Chill: 54°   Ceiling: 6000
Heat Index: 54°   Visibility: 20mi
Dew Point: 28°   Wind: 7mph
Humidity: 38%   Direction: 230°SW
Pressure: 30.12"   Gusts: NA
Location:  41.48°N, 74.02°W
Report Text: KSWF 231745Z 23006KT 20SM BKN060 12/M02 A3012
Loading
Personal Weather Stations






























Interactive Weather Map New forecast layout! Learn more

10-Day Weather Forecast

Advertisements
Track Severe Weather on mobile